EWG0144 YBHM-YBCS
Flight info
| Callsign | EWG0144 |
|---|---|
| Flight time | N/A |
| Altitude | 34000 |
| Route | OVRON Q67 CS |
| Aircraft | A320/M-SDE3FGHIRWY/LB1 |
Departure
| Time | 2026-04-22 15:25 |
|---|---|
| Airport | Hamilton Island Airport (YBHM) |
Arrival
| Time | N/A |
|---|---|
| Airport | Cairns International Airport (YBCS) |
| Time | Latitude | Longitude | Altitude | Speed | Heading |
|---|---|---|---|---|---|
| 2026-04-22 15:07 | -20.35263 | 148.95000 | 20 ft | 0 kts | 35° |
| 2026-04-22 15:20 | -20.35264 | 148.94999 | 19 ft | 2 kts | 35° |
| 2026-04-22 15:20 | -20.35286 | 148.94987 | 18 ft | 4 kts | 10° |
| 2026-04-22 15:20 | -20.35311 | 148.94989 | 19 ft | 4 kts | 332° |
| 2026-04-22 15:21 | -20.35318 | 148.94993 | 20 ft | 0 kts | 323° |
| 2026-04-22 15:22 | -20.35315 | 148.94991 | 19 ft | 1 kts | 323° |
| 2026-04-22 15:22 | -20.35273 | 148.94959 | 17 ft | 14 kts | 328° |
| 2026-04-22 15:23 | -20.35246 | 148.94897 | 17 ft | 12 kts | 297° |
| 2026-04-22 15:23 | -20.35257 | 148.94816 | 17 ft | 10 kts | 251° |
| 2026-04-22 15:23 | -20.35233 | 148.94755 | 18 ft | 10 kts | 316° |
| 2026-04-22 15:23 | -20.35161 | 148.94697 | 16 ft | 14 kts | 334° |
| 2026-04-22 15:24 | -20.35091 | 148.94670 | 15 ft | 6 kts | 262° |
| 2026-04-22 15:24 | -20.35117 | 148.94666 | 15 ft | 3 kts | 167° |
| 2026-04-22 15:24 | -20.35168 | 148.94700 | 15 ft | 14 kts | 143° |
| 2026-04-22 15:24 | -20.35427 | 148.94908 | 20 ft | 82 kts | 143° |
| 2026-04-22 15:25 | -20.36049 | 148.95398 | 22 ft | 138 kts | 145° |
| 2026-04-22 15:25 | -20.36845 | 148.96012 | 568 ft | 138 kts | 137° |
| 2026-04-22 15:25 | -20.37605 | 148.96629 | 1270 ft | 134 kts | 140° |
| 2026-04-22 15:25 | -20.38372 | 148.97176 | 1803 ft | 145 kts | 158° |
| 2026-04-22 15:26 | -20.39472 | 148.97208 | 2105 ft | 182 kts | 194° |
| 2026-04-22 15:26 | -20.40525 | 148.96296 | 2365 ft | 217 kts | 237° |
| 2026-04-22 15:26 | -20.40805 | 148.94631 | 2685 ft | 246 kts | 271° |
| 2026-04-22 15:26 | -20.40806 | 148.92752 | 3128 ft | 257 kts | 253° |
| 2026-04-22 15:27 | -20.41449 | 148.90926 | 3588 ft | 272 kts | 239° |
| 2026-04-22 15:27 | -20.42460 | 148.89208 | 4341 ft | 275 kts | 229° |
| 2026-04-22 15:27 | -20.43604 | 148.87557 | 5170 ft | 279 kts | 228° |
| 2026-04-22 15:27 | -20.44777 | 148.85891 | 6035 ft | 282 kts | 229° |
| 2026-04-22 15:28 | -20.45678 | 148.84010 | 6907 ft | 292 kts | 253° |
| 2026-04-22 15:28 | -20.45762 | 148.81828 | 7657 ft | 301 kts | 280° |
| 2026-04-22 15:28 | -20.45206 | 148.79671 | 8501 ft | 303 kts | 288° |
| 2026-04-22 15:28 | -20.44230 | 148.77686 | 9332 ft | 304 kts | 312° |
| 2026-04-22 15:29 | -20.42582 | 148.76308 | 10098 ft | 303 kts | 339° |
| 2026-04-22 15:29 | -20.40537 | 148.75542 | 10397 ft | 322 kts | 347° |
| 2026-04-22 15:29 | -20.38294 | 148.74918 | 10661 ft | 341 kts | 348° |
| 2026-04-22 15:30 | -20.33580 | 148.73716 | 11958 ft | 352 kts | 347° |
| 2026-04-22 15:30 | -20.31170 | 148.73165 | 12658 ft | 356 kts | 348° |
| 2026-04-22 15:30 | -20.28735 | 148.72640 | 13366 ft | 358 kts | 347° |
| 2026-04-22 15:30 | -20.26300 | 148.72152 | 14008 ft | 362 kts | 347° |
| 2026-04-22 15:31 | -20.23813 | 148.71682 | 14596 ft | 365 kts | 347° |
| 2026-04-22 15:31 | -20.21302 | 148.71219 | 15200 ft | 367 kts | 348° |
| 2026-04-22 15:31 | -20.18771 | 148.70757 | 15787 ft | 370 kts | 348° |
| 2026-04-22 15:31 | -20.16226 | 148.70297 | 16358 ft | 372 kts | 348° |
| 2026-04-22 15:32 | -20.13665 | 148.69838 | 16911 ft | 375 kts | 348° |
| 2026-04-22 15:32 | -20.11091 | 148.69345 | 17463 ft | 376 kts | 342° |
| 2026-04-22 15:32 | -20.08667 | 148.68321 | 17987 ft | 376 kts | 329° |
| 2026-04-22 15:32 | -20.06446 | 148.66854 | 18507 ft | 376 kts | 322° |
| 2026-04-22 15:33 | -20.04385 | 148.65137 | 18987 ft | 377 kts | 317° |
| 2026-04-22 15:33 | -20.02392 | 148.63308 | 19478 ft | 379 kts | 316° |
| 2026-04-22 15:33 | -20.00400 | 148.61461 | 19954 ft | 381 kts | 316° |
| 2026-04-22 15:33 | -19.98370 | 148.59638 | 20438 ft | 383 kts | 317° |
| 2026-04-22 15:34 | -19.96294 | 148.57846 | 20924 ft | 386 kts | 318° |
| 2026-04-22 15:34 | -19.94166 | 148.56075 | 21413 ft | 389 kts | 319° |
| 2026-04-22 15:34 | -19.92016 | 148.54328 | 21879 ft | 391 kts | 319° |
| 2026-04-22 15:34 | -19.89837 | 148.52574 | 22378 ft | 393 kts | 319° |
| 2026-04-22 15:35 | -19.88393 | 148.51411 | 22690 ft | 394 kts | 318° |
| 2026-04-22 15:35 | -19.85460 | 148.49041 | 23314 ft | 397 kts | 318° |
| 2026-04-22 15:35 | -19.83259 | 148.47253 | 23734 ft | 400 kts | 317° |
| 2026-04-22 15:35 | -19.81075 | 148.45472 | 24104 ft | 402 kts | 317° |
| 2026-04-22 15:36 | -19.78851 | 148.43656 | 24483 ft | 403 kts | 317° |
| 2026-04-22 15:36 | -19.76622 | 148.41831 | 24856 ft | 405 kts | 317° |
| 2026-04-22 15:36 | -19.74387 | 148.40003 | 25223 ft | 406 kts | 317° |
| 2026-04-22 15:36 | -19.72144 | 148.38168 | 25582 ft | 408 kts | 317° |
| 2026-04-22 15:37 | -19.69892 | 148.36332 | 25945 ft | 409 kts | 317° |
| 2026-04-22 15:37 | -19.67625 | 148.34489 | 26295 ft | 411 kts | 317° |
| 2026-04-22 15:37 | -19.65351 | 148.32640 | 26595 ft | 413 kts | 317° |
| 2026-04-22 15:37 | -19.63064 | 148.30777 | 26926 ft | 415 kts | 317° |
| 2026-04-22 15:38 | -19.60770 | 148.28907 | 27257 ft | 417 kts | 317° |
| 2026-04-22 15:38 | -19.56156 | 148.25147 | 27919 ft | 420 kts | 317° |
| 2026-04-22 15:38 | -19.53836 | 148.23257 | 28245 ft | 421 kts | 317° |
| 2026-04-22 15:39 | -19.51506 | 148.21361 | 28559 ft | 423 kts | 317° |
| 2026-04-22 15:39 | -19.49164 | 148.19458 | 28876 ft | 425 kts | 317° |
| 2026-04-22 15:39 | -19.46814 | 148.17552 | 29183 ft | 426 kts | 317° |
| 2026-04-22 15:39 | -19.44456 | 148.15642 | 29478 ft | 427 kts | 317° |
| 2026-04-22 15:40 | -19.42091 | 148.13724 | 29764 ft | 429 kts | 317° |
| 2026-04-22 15:40 | -19.39717 | 148.11800 | 30054 ft | 431 kts | 317° |
| 2026-04-22 15:40 | -19.37335 | 148.09869 | 30305 ft | 432 kts | 317° |
| 2026-04-22 15:40 | -19.34948 | 148.07931 | 30540 ft | 433 kts | 316° |
| 2026-04-22 15:41 | -19.32551 | 148.05989 | 30751 ft | 434 kts | 317° |
| 2026-04-22 15:41 | -19.30149 | 148.04042 | 30955 ft | 436 kts | 317° |
| 2026-04-22 15:41 | -19.27737 | 148.02084 | 31147 ft | 437 kts | 316° |
| 2026-04-22 15:41 | -19.25321 | 148.00127 | 31393 ft | 437 kts | 316° |
| 2026-04-22 15:42 | -19.22911 | 147.98180 | 31709 ft | 435 kts | 316° |
| 2026-04-22 15:42 | -19.20506 | 147.96237 | 32027 ft | 434 kts | 316° |
| 2026-04-22 15:42 | -19.18105 | 147.94298 | 32343 ft | 432 kts | 316° |
| 2026-04-22 15:42 | -19.15719 | 147.92373 | 32662 ft | 431 kts | 316° |
| 2026-04-22 15:43 | -19.13337 | 147.90450 | 32954 ft | 430 kts | 316° |
| 2026-04-22 15:43 | -19.10964 | 147.88533 | 33259 ft | 429 kts | 316° |
| 2026-04-22 15:43 | -19.08599 | 147.86620 | 33563 ft | 427 kts | 316° |
| 2026-04-22 15:43 | -19.06236 | 147.84714 | 33875 ft | 426 kts | 316° |
| 2026-04-22 15:44 | -19.03910 | 147.82837 | 34063 ft | 426 kts | 315° |
| 2026-04-22 15:44 | -19.01540 | 147.80922 | 34102 ft | 431 kts | 315° |
| 2026-04-22 15:44 | -18.96726 | 147.77027 | 34098 ft | 439 kts | 315° |
| 2026-04-22 15:45 | -18.91838 | 147.73087 | 34101 ft | 445 kts | 316° |
| 2026-04-22 15:45 | -18.86898 | 147.69119 | 34098 ft | 446 kts | 316° |
| 2026-04-22 15:46 | -18.81954 | 147.65150 | 34085 ft | 446 kts | 316° |
| 2026-04-22 15:46 | -18.77003 | 147.61171 | 34094 ft | 447 kts | 316° |
| 2026-04-22 15:47 | -18.72052 | 147.57193 | 34094 ft | 447 kts | 316° |
| 2026-04-22 15:47 | -18.67128 | 147.53241 | 34097 ft | 448 kts | 316° |
| 2026-04-22 15:48 | -18.62170 | 147.49268 | 34076 ft | 448 kts | 316° |
| 2026-04-22 15:48 | -18.57206 | 147.45296 | 34086 ft | 448 kts | 316° |
| 2026-04-22 15:49 | -18.52238 | 147.41322 | 34087 ft | 448 kts | 316° |
| 2026-04-22 15:49 | -18.47270 | 147.37337 | 34080 ft | 449 kts | 316° |
| 2026-04-22 15:50 | -18.42299 | 147.33360 | 34094 ft | 449 kts | 316° |
| 2026-04-22 15:50 | -18.37322 | 147.29385 | 34096 ft | 449 kts | 316° |
| 2026-04-22 15:51 | -18.33146 | 147.26056 | 34090 ft | 449 kts | 316° |
| 2026-04-22 15:51 | -18.28163 | 147.22084 | 34091 ft | 449 kts | 316° |
| 2026-04-22 15:52 | -18.23209 | 147.18137 | 34094 ft | 449 kts | 316° |
| 2026-04-22 15:52 | -18.18221 | 147.14161 | 34098 ft | 449 kts | 316° |
| 2026-04-22 15:53 | -18.13239 | 147.10188 | 34088 ft | 450 kts | 316° |
| 2026-04-22 15:53 | -18.08242 | 147.06217 | 34087 ft | 450 kts | 316° |
| 2026-04-22 15:54 | -18.03237 | 147.02245 | 34092 ft | 450 kts | 316° |
| 2026-04-22 15:54 | -17.98243 | 146.98275 | 34095 ft | 450 kts | 316° |
| 2026-04-22 15:55 | -17.93244 | 146.94302 | 34074 ft | 451 kts | 316° |
| 2026-04-22 15:55 | -17.88235 | 146.90326 | 34077 ft | 451 kts | 316° |
| 2026-04-22 15:56 | -17.83251 | 146.86371 | 34084 ft | 452 kts | 316° |
| 2026-04-22 15:56 | -17.78227 | 146.82395 | 34079 ft | 452 kts | 316° |
| 2026-04-22 15:57 | -17.73230 | 146.78372 | 34086 ft | 452 kts | 315° |
| 2026-04-22 15:57 | -17.68259 | 146.74311 | 34084 ft | 453 kts | 315° |
| 2026-04-22 15:58 | -17.63283 | 146.70259 | 34089 ft | 453 kts | 315° |
| 2026-04-22 15:58 | -17.58289 | 146.66217 | 34082 ft | 454 kts | 316° |
| 2026-04-22 15:59 | -17.53289 | 146.62173 | 34087 ft | 454 kts | 316° |
| 2026-04-22 15:59 | -17.48315 | 146.58150 | 34084 ft | 454 kts | 316° |
| 2026-04-22 16:00 | -17.45830 | 146.56140 | 33626 ft | 448 kts | 316° |
| 2026-04-22 16:00 | -17.43371 | 146.54151 | 32176 ft | 447 kts | 316° |
| 2026-04-22 16:00 | -17.40926 | 146.52166 | 31229 ft | 438 kts | 317° |
| 2026-04-22 16:00 | -17.38542 | 146.50236 | 30370 ft | 432 kts | 317° |
| 2026-04-22 16:01 | -17.36140 | 146.48288 | 29213 ft | 440 kts | 317° |
| 2026-04-22 16:01 | -17.33706 | 146.46314 | 28138 ft | 445 kts | 317° |
| 2026-04-22 16:01 | -17.31243 | 146.44325 | 27075 ft | 448 kts | 318° |
| 2026-04-22 16:01 | -17.28760 | 146.42322 | 25934 ft | 453 kts | 318° |
| 2026-04-22 16:02 | -17.26249 | 146.40297 | 24806 ft | 458 kts | 319° |
| 2026-04-22 16:02 | -17.23708 | 146.38248 | 23734 ft | 462 kts | 319° |
| 2026-04-22 16:02 | -17.21147 | 146.36185 | 22509 ft | 466 kts | 319° |
| 2026-04-22 16:02 | -17.18586 | 146.34126 | 21648 ft | 462 kts | 319° |
| 2026-04-22 16:03 | -17.16045 | 146.32084 | 20785 ft | 459 kts | 319° |
| 2026-04-22 16:03 | -17.13558 | 146.30082 | 19946 ft | 456 kts | 320° |
| 2026-04-22 16:03 | -17.11051 | 146.28066 | 19108 ft | 452 kts | 319° |
| 2026-04-22 16:03 | -17.08608 | 146.26103 | 18296 ft | 434 kts | 319° |
| 2026-04-22 16:04 | -17.06246 | 146.24205 | 17297 ft | 429 kts | 320° |
| 2026-04-22 16:04 | -17.03852 | 146.22276 | 16590 ft | 438 kts | 320° |
| 2026-04-22 16:04 | -17.01433 | 146.20326 | 15871 ft | 439 kts | 320° |
| 2026-04-22 16:04 | -16.99024 | 146.18386 | 15162 ft | 435 kts | 321° |
| 2026-04-22 16:05 | -16.96637 | 146.16467 | 14467 ft | 428 kts | 321° |
| 2026-04-22 16:05 | -16.94333 | 146.14616 | 13826 ft | 407 kts | 322° |
| 2026-04-22 16:05 | -16.92152 | 146.12863 | 13306 ft | 384 kts | 322° |
| 2026-04-22 16:05 | -16.90109 | 146.11220 | 12778 ft | 365 kts | 322° |
| 2026-04-22 16:06 | -16.88137 | 146.09636 | 12211 ft | 351 kts | 322° |
| 2026-04-22 16:06 | -16.86237 | 146.08114 | 11647 ft | 338 kts | 323° |
| 2026-04-22 16:06 | -16.84396 | 146.06639 | 11092 ft | 328 kts | 323° |
| 2026-04-22 16:06 | -16.82610 | 146.05205 | 10551 ft | 319 kts | 324° |
| 2026-04-22 16:07 | -16.80870 | 146.03807 | 10017 ft | 312 kts | 324° |
| 2026-04-22 16:07 | -16.79166 | 146.02438 | 9430 ft | 306 kts | 325° |
| 2026-04-22 16:07 | -16.77493 | 146.01097 | 8850 ft | 302 kts | 324° |
| 2026-04-22 16:07 | -16.75817 | 145.99755 | 8406 ft | 303 kts | 323° |
| 2026-04-22 16:08 | -16.74134 | 145.98407 | 7906 ft | 306 kts | 325° |
| 2026-04-22 16:08 | -16.72437 | 145.97047 | 7476 ft | 307 kts | 324° |
| 2026-04-22 16:08 | -16.70752 | 145.95699 | 7113 ft | 304 kts | 324° |
| 2026-04-22 16:08 | -16.69184 | 145.94227 | 6756 ft | 303 kts | 313° |
| 2026-04-22 16:09 | -16.67783 | 145.92588 | 6397 ft | 303 kts | 313° |
| 2026-04-22 16:09 | -16.66376 | 145.90954 | 6019 ft | 301 kts | 313° |
| 2026-04-22 16:09 | -16.64976 | 145.89335 | 5644 ft | 300 kts | 313° |
| 2026-04-22 16:09 | -16.63661 | 145.87657 | 5272 ft | 299 kts | 303° |
| 2026-04-22 16:10 | -16.62724 | 145.85734 | 4912 ft | 297 kts | 288° |